Time;durP1;ratioP1;P1;durP2;ratioP2;P2;SDS_P1;SDS_P2;PMS_P1;PMS_P2;Temp;Humidity;BMP_temperature;BMP_pressure;BME280_temperature;BME280_humidity;BME280_pressure;Samples;Min_cycle;Max_cycle;Signal;HPM_P1;HPM_P2
2023/05/03 00:00:12;;;;;;;16.92;9.40;;;;;;;3.75;95.48;100408.88;4953192;28;20454;-62
2023/05/03 00:02:40;;;;;;;18.07;8.40;;;;;;;3.71;95.62;100400.41;4953685;28;20394;-62
2023/05/03 00:05:11;;;;;;;15.30;7.78;;;;;;;3.53;96.00;100395.31;4951183;28;20048;-62
2023/05/03 00:07:39;;;;;;;;;;;;;;;3.62;95.22;100398.75;4937538;28;20106;-62
2023/05/03 00:10:09;;;;;;;13.35;7.30;;;;;;;3.53;95.81;100390.00;4936585;28;19929;-62
2023/05/03 00:12:38;;;;;;;14.88;8.02;;;;;;;3.52;95.46;100387.50;4939433;28;20047;-62
2023/05/03 00:15:06;;;;;;;14.10;7.45;;;;;;;3.62;100.00;100386.34;4945698;28;20430;-62
2023/05/03 00:17:33;;;;;;;12.60;7.78;;;;;;;3.53;96.75;100379.41;4948085;28;20320;-62
2023/05/03 00:20:06;;;;;;;16.45;7.88;;;;;;;3.48;98.29;100379.06;4944548;28;20062;-62
2023/05/03 00:22:34;;;;;;;12.27;8.73;;;;;;;3.43;97.17;100378.75;4946360;28;20122;-62
2023/05/03 00:25:01;;;;;;;11.00;7.70;;;;;;;3.35;97.61;100376.94;4943378;28;20043;-62
2023/05/03 00:27:28;;;;;;;15.15;8.10;;;;;;;3.40;99.16;100381.75;4947725;28;20483;-62
2023/05/03 00:29:57;;;;;;;16.52;8.57;;;;;;;3.48;98.42;100375.59;4941684;28;20138;-62
2023/05/03 00:32:24;;;;;;;14.90;8.20;;;;;;;3.27;97.41;100369.00;4951678;28;20127;-62
2023/05/03 00:34:53;;;;;;;12.13;8.02;;;;;;;3.31;98.95;100372.16;4943080;28;20098;-63
2023/05/03 00:37:23;;;;;;;18.30;9.18;;;;;;;3.26;97.81;100363.88;4946674;28;20043;-63
2023/05/03 00:39:51;;;;;;;15.27;8.25;;;;;;;3.17;98.64;100358.59;4955326;28;20043;-62
2023/05/03 00:42:18;;;;;;;14.48;8.70;;;;;;;3.41;98.50;100367.50;4951402;28;20148;-62
2023/05/03 00:44:46;;;;;;;12.30;7.90;;;;;;;3.41;97.21;100370.13;4949168;28;20523;-62
2023/05/03 00:47:21;;;;;;;12.13;8.15;;;;;;;3.24;96.68;100372.81;4946177;28;20498;-62
2023/05/03 00:49:48;;;;;;;16.85;8.20;;;;;;;3.11;96.97;100364.53;4941732;28;20039;-62
2023/05/03 00:52:16;;;;;;;13.88;7.72;;;;;;;3.01;97.11;100371.81;4940175;28;20059;-62
2023/05/03 00:54:43;;;;;;;15.07;7.95;;;;;;;2.97;98.94;100373.13;4942998;28;20043;-62
2023/05/03 00:57:10;;;;;;;16.25;8.70;;;;;;;2.83;100.00;100365.88;4949455;28;20036;-62
2023/05/03 00:59:38;;;;;;;13.75;8.57;;;;;;;2.99;100.00;100365.84;4942345;28;20514;-62
2023/05/03 01:02:07;;;;;;;13.13;8.45;;;;;;;2.87;99.32;100377.75;4944920;28;20047;-62
2023/05/03 01:04:36;;;;;;;16.08;8.27;;;;;;;2.76;99.51;100371.78;4940380;28;20043;-62
2023/05/03 01:07:09;;;;;;;17.25;8.90;;;;;;;2.81;100.00;100361.53;4945006;28;20045;-63
2023/05/03 01:09:39;;;;;;;11.68;8.98;;;;;;;2.58;100.00;100357.88;4943573;28;20051;-62
2023/05/03 01:12:18;;;;;;;15.15;8.55;;;;;;;2.66;100.00;100365.81;4942644;28;20169;-62
2023/05/03 01:14:49;;;;;;;13.60;8.90;;;;;;;2.70;100.00;100361.88;4948275;28;20354;-62
2023/05/03 01:17:17;;;;;;;16.48;9.07;;;;;;;2.76;100.00;100363.84;4948278;28;20094;-63
2023/05/03 01:19:47;;;;;;;14.85;8.60;;;;;;;2.81;100.00;100358.06;4943705;28;20043;-62
2023/05/03 01:22:17;;;;;;;;;;;;;;;2.97;100.00;100367.84;4946699;28;20051;-62
2023/05/03 01:24:46;;;;;;;13.23;8.23;;;;;;;2.88;100.00;100374.13;4944416;28;20328;-61
2023/05/03 01:27:15;;;;;;;16.00;9.18;;;;;;;2.99;100.00;100368.50;4940832;28;20063;-62
2023/05/03 01:29:42;;;;;;;11.95;8.55;;;;;;;2.95;100.00;100375.97;4944823;28;20051;-62
2023/05/03 01:32:13;;;;;;;15.35;9.23;;;;;;;2.75;100.00;100380.75;4939089;28;20043;-62
2023/05/03 01:34:48;;;;;;;15.68;8.93;;;;;;;2.42;100.00;100379.00;4948215;28;20478;-62
2023/05/03 01:37:15;;;;;;;18.85;9.68;;;;;;;2.45;100.00;100370.78;4943736;28;20102;-62
2023/05/03 01:39:47;;;;;;;17.20;9.63;;;;;;;2.47;100.00;100382.00;4963354;28;20047;-62
2023/05/03 01:42:16;;;;;;;13.75;9.95;;;;;;;2.53;100.00;100381.38;4948581;28;20032;-62
2023/05/03 01:44:46;;;;;;;19.52;9.45;;;;;;;2.31;100.00;100382.78;4940283;28;20055;-62
2023/05/03 01:47:15;;;;;;;18.88;9.48;;;;;;;2.49;100.00;100385.31;4941649;28;20066;-62
2023/05/03 01:49:42;;;;;;;21.30;9.85;;;;;;;2.45;100.00;100381.34;4949663;28;20074;-62
2023/05/03 01:52:09;;;;;;;21.75;9.60;;;;;;;2.33;100.00;100381.63;4939813;28;20035;-62
2023/05/03 01:54:39;;;;;;;16.95;9.45;;;;;;;2.41;100.00;100380.81;4947644;28;20081;-62
2023/05/03 01:57:06;;;;;;;15.07;9.07;;;;;;;2.33;100.00;100384.28;4948471;28;20460;-62
2023/05/03 01:59:37;;;;;;;18.33;8.98;;;;;;;2.52;100.00;100390.28;4941650;28;20048;-62
2023/05/03 02:02:05;;;;;;;17.42;8.63;;;;;;;2.31;100.00;100388.91;4939340;28;20106;-62
2023/05/03 02:04:32;;;;;;;16.73;8.13;;;;;;;2.33;100.00;100391.41;4953309;28;20053;-62
2023/05/03 02:06:59;;;;;;;15.48;8.95;;;;;;;2.44;100.00;100392.91;4945734;28;20079;-62
2023/05/03 02:09:26;;;;;;;19.85;9.48;;;;;;;2.42;100.00;100389.59;4948508;28;20552;-62
2023/05/03 02:11:53;;;;;;;18.08;8.60;;;;;;;2.15;100.00;100389.69;4939997;28;20054;-62
2023/05/03 02:14:20;;;;;;;17.33;8.85;;;;;;;2.35;100.00;100400.81;4945535;28;20122;-62
2023/05/03 02:16:49;;;;;;;17.58;8.77;;;;;;;2.35;100.00;100390.25;4948033;28;20039;-62
2023/05/03 02:19:18;;;;;;;15.70;9.50;;;;;;;2.35;100.00;100390.25;4943533;28;20123;-62
2023/05/03 02:21:45;;;;;;;17.52;8.68;;;;;;;2.31;100.00;100393.38;4939407;28;20135;-62
2023/05/03 02:24:13;;;;;;;15.00;8.90;;;;;;;2.08;100.00;100387.84;4933515;28;20138;-62
2023/05/03 02:26:40;;;;;;;17.80;8.65;;;;;;;1.97;100.00;100396.03;4956736;28;20035;-62
2023/05/03 02:29:10;;;;;;;17.90;9.75;;;;;;;1.96;100.00;100391.75;4931302;28;20051;-62
2023/05/03 02:31:37;;;;;;;18.83;9.93;;;;;;;1.94;100.00;100395.34;4944640;28;20051;-62
2023/05/03 02:34:06;;;;;;;20.15;8.95;;;;;;;2.08;100.00;100393.94;4941231;28;20584;-62
2023/05/03 02:36:33;;;;;;;13.55;8.80;;;;;;;2.16;100.00;100390.50;4940767;28;20110;-62
2023/05/03 02:39:02;;;;;;;22.20;10.60;;;;;;;2.09;100.00;100395.59;4935079;28;20130;-62
2023/05/03 02:41:29;;;;;;;21.50;9.30;;;;;;;1.86;100.00;100389.22;4947065;28;20050;-62
2023/05/03 02:43:57;;;;;;;16.85;9.70;;;;;;;2.02;100.00;100391.09;4951231;28;20065;-62
2023/05/03 02:46:27;;;;;;;18.25;10.23;;;;;;;2.12;100.00;100389.16;4952686;28;20062;-62
2023/05/03 02:48:54;;;;;;;22.88;10.13;;;;;;;2.15;100.00;100380.91;4947649;28;20046;-62
2023/05/03 02:51:22;;;;;;;16.40;9.57;;;;;;;2.04;100.00;100383.84;4944594;28;20098;-62
2023/05/03 02:53:50;;;;;;;19.30;9.60;;;;;;;2.02;100.00;100380.50;4943659;28;20047;-63
2023/05/03 02:56:17;;;;;;;16.58;9.73;;;;;;;2.21;100.00;100380.28;4940193;28;20070;-63
2023/05/03 02:58:44;;;;;;;20.25;10.52;;;;;;;2.67;100.00;100383.38;4937069;28;20043;-62
2023/05/03 03:01:12;;;;;;;20.80;10.02;;;;;;;2.40;100.00;100380.97;4940065;28;20058;-63
2023/05/03 03:03:40;;;;;;;17.90;9.32;;;;;;;2.26;100.00;100385.91;4937296;28;20126;-62
2023/05/03 03:06:08;;;;;;;16.23;9.23;;;;;;;2.04;100.00;100389.13;4950738;28;20039;-63
2023/05/03 03:08:37;;;;;;;13.57;9.05;;;;;;;2.05;100.00;100388.16;4944424;28;20054;-62
2023/05/03 03:11:05;;;;;;;17.75;9.68;;;;;;;1.98;100.00;100381.84;4938554;28;20055;-62
2023/05/03 03:13:38;;;;;;;20.52;9.98;;;;;;;1.75;100.00;100392.97;4940625;28;20134;-62
2023/05/03 03:16:06;;;;;;;18.50;10.20;;;;;;;1.74;100.00;100391.28;4933957;28;21853;-62
2023/05/03 03:18:34;;;;;;;17.90;10.63;;;;;;;2.09;100.00;100392.13;4943897;28;20150;-62
2023/05/03 03:21:02;;;;;;;19.80;10.18;;;;;;;2.28;100.00;100378.66;4955528;28;20437;-61
2023/05/03 03:23:30;;;;;;;21.92;10.73;;;;;;;1.63;100.00;100383.63;4940989;28;20043;-62
2023/05/03 03:26:00;;;;;;;23.05;11.15;;;;;;;1.63;100.00;100379.19;4943229;28;20045;-62
2023/05/03 03:28:27;;;;;;;24.27;11.02;;;;;;;1.50;100.00;100374.31;4940885;28;20051;-62
2023/05/03 03:30:58;;;;;;;20.25;10.75;;;;;;;1.66;100.00;100380.69;4925725;29;20052;-62
2023/05/03 03:33:25;;;;;;;20.15;10.57;;;;;;;1.69;100.00;100383.81;4920342;28;20054;-62
2023/05/03 03:35:56;;;;;;;;;;;;;;;1.71;100.00;100388.97;4942177;28;20044;-62
2023/05/03 03:38:28;;;;;;;16.77;9.95;;;;;;;1.86;100.00;100391.84;4953620;28;19926;-62
2023/05/03 03:41:02;;;;;;;17.23;9.70;;;;;;;1.73;100.00;100389.63;4940966;28;20150;-62
2023/05/03 03:43:30;;;;;;;21.13;10.32;;;;;;;1.46;100.00;100388.81;4937439;28;20103;-62
2023/05/03 03:45:58;;;;;;;20.50;11.00;;;;;;;1.34;100.00;100376.84;4934452;28;20044;-62
2023/05/03 03:48:25;;;;;;;19.27;10.73;;;;;;;1.34;100.00;100379.47;4936604;28;20074;-62
2023/05/03 03:50:53;;;;;;;16.63;9.45;;;;;;;1.39;100.00;100382.47;4935787;28;20127;-61
2023/05/03 03:53:25;;;;;;;16.83;11.13;;;;;;;1.45;100.00;100387.16;4946381;28;20482;-61
2023/05/03 03:55:52;;;;;;;19.40;11.40;;;;;;;1.59;100.00;100385.75;4943651;28;20059;-61
2023/05/03 03:58:24;;;;;;;21.42;10.38;;;;;;;1.58;100.00;100380.63;4942297;28;20050;-61
2023/05/03 04:00:51;;;;;;;18.42;10.40;;;;;;;1.75;100.00;100385.03;4942025;28;20589;-62
2023/05/03 04:03:22;;;;;;;17.02;10.75;;;;;;;1.42;100.00;100376.06;4942496;28;20055;-62
2023/05/03 04:05:51;;;;;;;16.40;9.90;;;;;;;1.71;100.00;100381.03;4950112;28;20075;-62
2023/05/03 04:08:20;;;;;;;19.80;10.85;;;;;;;1.55;100.00;100376.50;4956075;28;20056;-61
2023/05/03 04:10:47;;;;;;;20.70;12.43;;;;;;;1.74;100.00;100383.34;4941202;28;20521;-61
2023/05/03 04:13:17;;;;;;;16.58;9.95;;;;;;;1.57;100.00;100386.88;4923409;28;20099;-61
2023/05/03 04:15:53;;;;;;;16.73;10.15;;;;;;;1.94;100.00;100376.84;4948177;28;20046;-63
2023/05/03 04:18:23;;;;;;;19.15;10.50;;;;;;;2.45;100.00;100384.00;4949169;28;20051;-61
2023/05/03 04:20:53;;;;;;;17.77;10.30;;;;;;;3.56;98.59;100379.06;4943108;28;20430;-61
2023/05/03 04:23:21;;;;;;;19.52;10.32;;;;;;;4.51;90.45;100383.50;4948017;28;20121;-63
2023/05/03 04:25:48;;;;;;;16.50;8.50;;;;;;;4.88;85.64;100387.28;4954947;28;20131;-62
2023/05/03 04:28:19;;;;;;;16.05;9.05;;;;;;;5.35;81.20;100384.41;4949919;28;20051;-63
2023/05/03 04:30:50;;;;;;;14.25;8.95;;;;;;;5.18;82.04;100390.84;4944989;28;20529;-62
2023/05/03 04:33:23;;;;;;;15.38;8.50;;;;;;;4.72;84.24;100377.59;4946110;28;20054;-62
2023/05/03 04:35:53;;;;;;;16.05;9.15;;;;;;;4.37;87.45;100387.75;4941144;28;20046;-63
2023/05/03 04:38:21;;;;;;;14.23;8.80;;;;;;;5.70;82.30;100379.41;4956173;28;20039;-62
2023/05/03 04:40:48;;;;;;;14.02;8.18;;;;;;;7.17;73.65;100389.16;4933813;29;20534;-62
2023/05/03 04:43:16;;;;;;;13.27;7.20;;;;;;;7.66;68.98;100385.59;4949161;28;20051;-62
2023/05/03 04:45:51;;;;;;;11.80;6.90;;;;;;;8.30;63.89;100396.03;4933621;28;20083;-62
2023/05/03 04:48:22;;;;;;;10.30;6.72;;;;;;;9.00;59.84;100383.31;4945181;28;20503;-62
2023/05/03 04:50:52;;;;;;;11.10;7.05;;;;;;;8.37;61.23;100383.53;4945069;28;20122;-62
2023/05/03 04:53:24;;;;;;;11.15;6.53;;;;;;;8.60;62.15;100382.41;4952216;28;20035;-62
2023/05/03 04:56:01;;;;;;;10.38;6.80;;;;;;;8.82;61.64;100370.53;4938701;28;20095;-62
2023/05/03 04:58:30;;;;;;;13.00;7.20;;;;;;;9.09;62.54;100367.91;4955189;28;20367;-62
2023/05/03 05:00:59;;;;;;;11.82;7.53;;;;;;;9.59;61.78;100365.63;4936330;28;20434;-63
2023/05/03 05:03:30;;;;;;;11.10;6.78;;;;;;;10.35;57.02;100358.81;4958784;28;20035;-62
2023/05/03 05:05:57;;;;;;;12.00;6.88;;;;;;;10.86;54.75;100360.59;4947244;28;20052;-62
2023/05/03 05:08:25;;;;;;;12.98;6.70;;;;;;;10.72;54.77;100365.22;4935991;28;20051;-62
2023/05/03 05:10:56;;;;;;;7.45;5.78;;;;;;;11.02;54.56;100368.13;4935876;28;20047;-62
2023/05/03 05:13:28;;;;;;;12.23;6.82;;;;;;;10.58;55.02;100379.72;4945316;28;20042;-62
2023/05/03 05:15:55;;;;;;;12.25;6.57;;;;;;;10.73;54.13;100374.09;4943584;28;20059;-62
2023/05/03 05:18:24;;;;;;;11.43;6.80;;;;;;;11.80;52.11;100382.09;4942323;28;20050;-61
2023/05/03 05:20:53;;;;;;;9.60;5.82;;;;;;;11.98;50.83;100397.44;4946028;28;20035;-62
2023/05/03 05:23:21;;;;;;;9.73;6.38;;;;;;;11.99;50.60;100402.59;4945143;28;20442;-62
2023/05/03 05:25:49;;;;;;;10.63;6.20;;;;;;;12.35;50.67;100419.78;4944314;28;20051;-62
2023/05/03 05:28:28;;;;;;;9.73;6.15;;;;;;;11.74;51.68;100413.38;4937355;28;20161;-62
2023/05/03 05:30:59;;;;;;;14.18;6.78;;;;;;;12.45;50.18;100414.69;4946555;28;20067;-62
2023/05/03 05:33:30;;;;;;;12.45;6.70;;;;;;;12.60;51.34;100419.66;4941921;28;20045;-62
2023/05/03 05:35:58;;;;;;;12.85;7.10;;;;;;;12.19;51.41;100423.06;4941954;28;20059;-62
2023/05/03 05:38:26;;;;;;;11.20;6.82;;;;;;;13.32;48.92;100424.28;4927402;28;20058;-62
2023/05/03 05:40:57;;;;;;;12.57;7.55;;;;;;;12.88;50.04;100419.09;4944335;28;20047;-62
2023/05/03 05:43:24;;;;;;;12.73;7.05;;;;;;;14.00;47.27;100428.28;4953049;28;20621;-62
2023/05/03 05:45:52;;;;;;;12.63;6.88;;;;;;;14.49;46.65;100436.06;4955106;28;20483;-62
2023/05/03 05:48:23;;;;;;;11.77;7.05;;;;;;;14.74;46.17;100433.91;4928731;28;20055;-66
2023/05/03 05:50:56;;;;;;;14.18;7.15;;;;;;;14.02;47.13;100432.38;4942555;28;20040;-62
2023/05/03 05:53:24;;;;;;;15.25;6.78;;;;;;;14.45;46.01;100431.16;4925806;28;20043;-62
2023/05/03 05:56:07;;;;;;;12.25;6.20;;;;;;;14.80;45.29;100427.56;4954508;28;20140;-62
2023/05/03 05:58:44;;;;;;;19.27;6.28;;;;;;;14.92;45.38;100427.50;4939989;28;20045;-63
2023/05/03 06:01:11;;;;;;;13.00;6.35;;;;;;;14.77;46.10;100428.03;4926670;28;20390;-62
2023/05/03 06:03:39;;;;;;;19.95;6.30;;;;;;;15.10;45.40;100421.06;4951434;28;20061;-63
2023/05/03 06:06:09;;;;;;;22.60;7.97;;;;;;;14.15;46.00;100419.72;4947290;28;20135;-62
2023/05/03 06:08:37;;;;;;;17.92;6.75;;;;;;;14.72;46.30;100430.63;4941134;28;20512;-62
2023/05/03 06:11:06;;;;;;;20.50;7.30;;;;;;;14.84;46.24;100427.88;4945151;28;20143;-62
2023/05/03 06:13:37;;;;;;;19.08;6.38;;;;;;;15.29;44.99;100430.59;4943677;28;20051;-62
2023/05/03 06:16:06;;;;;;;23.80;6.93;;;;;;;15.55;45.02;100439.13;4942018;28;20067;-62
2023/05/03 06:18:34;;;;;;;22.40;7.25;;;;;;;15.96;43.40;100448.69;4937609;28;20509;-62
2023/05/03 06:21:01;;;;;;;26.15;7.45;;;;;;;15.84;43.94;100447.16;4948090;28;20051;-62
2023/05/03 06:23:29;;;;;;;25.35;6.82;;;;;;;16.67;43.43;100449.88;4945823;28;20053;-62
2023/05/03 06:25:58;;;;;;;14.55;6.93;;;;;;;16.80;43.07;100454.97;4950002;28;20047;-62
2023/05/03 06:28:26;;;;;;;15.55;6.45;;;;;;;15.59;45.08;100453.78;4939565;28;20065;-62
2023/05/03 06:30:55;;;;;;;15.52;6.15;;;;;;;16.54;43.95;100451.91;4937601;28;20055;-62
2023/05/03 06:33:22;;;;;;;21.65;6.50;;;;;;;16.16;44.35;100450.88;4947059;28;20075;-62
2023/05/03 06:35:51;;;;;;;;;;;;;;;14.82;45.12;100454.28;4942024;28;20134;-62
2023/05/03 06:38:21;;;;;;;31.55;7.28;;;;;;;15.40;44.80;100453.22;4941879;28;19934;-62
2023/05/03 06:40:50;;;;;;;24.47;6.93;;;;;;;15.77;44.73;100460.84;4937139;28;20562;-62
2023/05/03 06:43:19;;;;;;;40.20;7.28;;;;;;;16.08;43.02;100453.19;4941126;28;20759;-66
2023/05/03 06:45:55;;;;;;;34.38;6.60;;;;;;;16.88;42.98;100457.19;4937307;28;20131;-62
2023/05/03 06:48:23;;;;;;;19.13;7.35;;;;;;;16.09;44.02;100449.41;4937851;28;20051;-62
2023/05/03 06:50:50;;;;;;;28.98;6.85;;;;;;;15.30;44.92;100443.03;4943247;28;20158;-62
2023/05/03 06:53:18;;;;;;;15.00;6.25;;;;;;;15.90;45.09;100436.19;4947192;28;20127;-64
2023/05/03 06:55:45;;;;;;;23.67;6.65;;;;;;;16.46;43.73;100438.81;4941185;28;20053;-61
2023/05/03 06:58:15;;;;;;;23.67;6.45;;;;;;;17.53;41.26;100443.72;4947859;28;20469;-61
2023/05/03 07:00:42;;;;;;;22.48;6.10;;;;;;;17.42;41.85;100440.94;4949494;28;20581;-60
2023/05/03 07:03:09;;;;;;;21.67;6.47;;;;;;;17.19;42.68;100442.06;4937903;28;20537;-61
2023/05/03 07:05:36;;;;;;;27.00;6.78;;;;;;;17.68;41.43;100443.84;4945015;28;20514;-61
2023/05/03 07:08:04;;;;;;;22.38;6.07;;;;;;;18.14;40.98;100449.59;4944992;28;20498;-60
2023/05/03 07:10:31;;;;;;;8.40;5.00;;;;;;;18.22;39.38;100453.69;4942381;28;20045;-61
2023/05/03 07:12:58;;;;;;;12.38;5.65;;;;;;;17.61;41.43;100454.09;4946200;28;20126;-61
2023/05/03 07:15:27;;;;;;;10.77;5.75;;;;;;;17.49;40.22;100454.25;4943496;28;20478;-61
2023/05/03 07:17:54;;;;;;;10.32;5.13;;;;;;;18.28;39.35;100448.03;4933442;28;20515;-61
2023/05/03 07:20:25;;;;;;;9.48;5.13;;;;;;;16.69;40.85;100445.03;4943819;28;20067;-61
2023/05/03 07:22:52;;;;;;;8.15;5.03;;;;;;;17.81;39.05;100448.84;4940815;28;20059;-63
2023/05/03 07:25:21;;;;;;;9.43;4.82;;;;;;;17.36;40.34;100441.13;4940855;28;20439;-61
2023/05/03 07:27:48;;;;;;;8.05;5.50;;;;;;;16.90;41.30;100443.38;4950680;28;20047;-63
2023/05/03 07:30:16;;;;;;;10.30;5.22;;;;;;;16.35;41.38;100439.78;4942987;28;20047;-63
2023/05/03 07:32:44;;;;;;;9.90;5.43;;;;;;;17.24;40.24;100433.97;4945617;28;20126;-62
2023/05/03 07:35:11;;;;;;;8.10;5.07;;;;;;;17.38;39.89;100434.38;4947981;28;20043;-62
2023/05/03 07:37:38;;;;;;;9.35;5.15;;;;;;;15.70;42.70;100425.88;4939147;28;20648;-62
2023/05/03 07:40:06;;;;;;;10.05;5.20;;;;;;;15.69;42.89;100429.63;4942722;28;20051;-62
2023/05/03 07:42:33;;;;;;;9.95;5.80;;;;;;;14.88;45.08;100446.06;4950883;28;20134;-61
2023/05/03 07:45:02;;;;;;;10.82;5.40;;;;;;;15.63;43.37;100440.59;4938522;28;20075;-63
2023/05/03 07:47:30;;;;;;;14.85;5.72;;;;;;;14.09;45.19;100434.16;4943135;28;20062;-62
2023/05/03 07:49:58;;;;;;;8.90;5.22;;;;;;;13.73;46.90;100433.38;4942947;28;20040;-61
2023/05/03 07:52:26;;;;;;;8.88;5.30;;;;;;;14.44;45.23;100424.13;4944624;28;20138;-62
2023/05/03 07:54:53;;;;;;;15.30;6.93;;;;;;;15.64;44.21;100426.81;4943901;28;20039;-62
2023/05/03 07:57:22;;;;;;;11.52;5.93;;;;;;;14.60;44.68;100421.75;4951421;28;20139;-62
2023/05/03 07:59:52;;;;;;;12.32;5.22;;;;;;;15.42;43.66;100429.44;4944906;28;20058;-62
2023/05/03 08:02:22;;;;;;;11.30;5.65;;;;;;;13.80;46.07;100423.25;4944262;28;20050;-61
2023/05/03 08:04:49;;;;;;;9.98;5.90;;;;;;;13.94;46.22;100430.06;4947020;28;20043;-62
2023/05/03 08:07:17;;;;;;;11.90;5.57;;;;;;;14.00;45.64;100422.91;4954034;28;20422;-63
2023/05/03 08:09:44;;;;;;;14.10;6.10;;;;;;;13.39;47.83;100422.31;4940566;28;20050;-62
2023/05/03 08:12:12;;;;;;;10.60;6.53;;;;;;;12.74;49.06;100426.53;4946713;28;20044;-61
2023/05/03 08:14:39;;;;;;;10.82;6.13;;;;;;;13.53;48.09;100412.16;4940507;28;20076;-62
2023/05/03 08:17:06;;;;;;;9.75;5.30;;;;;;;14.18;46.39;100414.69;4946732;28;20592;-61
2023/05/03 08:19:33;;;;;;;10.60;6.10;;;;;;;13.98;46.79;100409.69;4958019;28;20051;-61
2023/05/03 08:22:02;;;;;;;10.50;5.78;;;;;;;14.04;46.70;100405.22;4948100;28;20499;-62
2023/05/03 08:24:31;;;;;;;15.60;6.15;;;;;;;15.49;44.63;100407.69;4952354;28;20647;-63
2023/05/03 08:26:58;;;;;;;10.77;5.80;;;;;;;15.65;44.15;100401.47;4949593;28;20490;-62
2023/05/03 08:29:25;;;;;;;9.98;5.85;;;;;;;14.95;45.49;100412.69;4952215;28;20741;-63
2023/05/03 08:31:52;;;;;;;11.57;5.60;;;;;;;15.27;44.08;100413.78;4941897;28;20040;-60
2023/05/03 08:34:19;;;;;;;9.23;5.40;;;;;;;14.24;45.28;100419.13;4961851;28;20387;-61
2023/05/03 08:36:49;;;;;;;10.68;5.28;;;;;;;13.94;45.57;100413.88;4950209;28;20059;-62
2023/05/03 08:39:17;;;;;;;9.52;5.40;;;;;;;13.47;46.69;100413.88;4937985;28;20070;-61
2023/05/03 08:41:46;;;;;;;12.65;6.13;;;;;;;13.92;46.19;100404.41;4939949;28;20483;-61
2023/05/03 08:44:13;;;;;;;8.45;5.15;;;;;;;15.61;43.54;100389.50;4947617;28;20051;-61
2023/05/03 08:46:43;;;;;;;9.65;5.55;;;;;;;15.67;42.00;100396.59;4950505;28;20043;-60
2023/05/03 08:49:10;;;;;;;13.52;6.05;;;;;;;14.52;44.84;100400.53;4942371;28;20533;-60
2023/05/03 08:51:37;;;;;;;9.70;6.18;;;;;;;13.17;47.97;100398.56;4951170;28;20046;-61
2023/05/03 08:54:04;;;;;;;12.48;5.82;;;;;;;13.65;47.09;100393.28;4950418;28;20039;-61
2023/05/03 08:56:33;;;;;;;10.65;6.00;;;;;;;14.37;44.46;100396.47;4946404;28;20090;-61
2023/05/03 08:59:06;;;;;;;13.80;6.18;;;;;;;13.73;46.70;100395.66;4938085;28;20135;-61
2023/05/03 09:01:33;;;;;;;10.07;5.60;;;;;;;14.41;43.87;100391.41;4939959;28;20055;-62
2023/05/03 09:04:00;;;;;;;10.73;4.95;;;;;;;14.38;44.17;100391.91;4948248;28;20044;-61
2023/05/03 09:06:27;;;;;;;15.70;6.22;;;;;;;14.34;43.46;100388.84;4944516;28;20106;-61
2023/05/03 09:08:54;;;;;;;11.02;5.05;;;;;;;13.79;44.35;100400.88;4948366;28;20093;-61
2023/05/03 09:11:22;;;;;;;8.90;5.22;;;;;;;13.28;44.62;100401.56;4953731;28;20051;-61
2023/05/03 09:13:50;;;;;;;10.65;5.25;;;;;;;13.47;44.57;100381.56;4944284;28;20139;-61
2023/05/03 09:16:28;;;;;;;9.43;5.07;;;;;;;13.67;44.23;100378.53;4948972;28;20522;-61
2023/05/03 09:19:07;;;;;;;10.88;5.47;;;;;;;15.15;41.94;100380.69;4937871;28;20059;-61
2023/05/03 09:21:34;;;;;;;14.70;5.30;;;;;;;13.73;44.74;100390.25;4932971;28;20389;-63
2023/05/03 09:24:02;;;;;;;8.55;4.70;;;;;;;14.16;43.96;100373.66;4931533;28;20433;-61
2023/05/03 09:26:30;;;;;;;9.52;5.45;;;;;;;13.93;43.20;100382.63;4940180;28;20125;-61
2023/05/03 09:28:58;;;;;;;7.15;4.57;;;;;;;13.52;45.06;100386.25;4943439;28;20047;-63
2023/05/03 09:31:25;;;;;;;12.85;5.20;;;;;;;14.35;43.54;100381.56;4943440;28;20055;-61
2023/05/03 09:33:54;;;;;;;8.80;5.00;;;;;;;13.88;44.05;100377.13;4947958;28;20131;-61
2023/05/03 09:36:22;;;;;;;10.23;5.40;;;;;;;13.84;43.34;100377.81;4944327;28;20071;-62
2023/05/03 09:38:49;;;;;;;11.52;5.60;;;;;;;13.86;43.29;100381.09;4939282;28;20066;-61
2023/05/03 09:41:16;;;;;;;9.63;5.28;;;;;;;14.79;42.12;100379.22;4942752;28;20510;-61
2023/05/03 09:43:51;;;;;;;9.43;5.10;;;;;;;13.67;44.32;100377.72;4940664;28;20058;-62
2023/05/03 09:46:19;;;;;;;9.73;4.82;;;;;;;13.54;44.12;100371.50;4939066;28;20442;-61
2023/05/03 09:48:46;;;;;;;11.02;5.40;;;;;;;13.71;44.04;100371.63;4944852;28;20127;-63
2023/05/03 09:51:14;;;;;;;9.13;4.97;;;;;;;14.26;43.12;100383.03;4950192;28;20126;-61
2023/05/03 09:53:41;;;;;;;7.80;4.97;;;;;;;13.30;44.85;100380.59;4949804;28;20522;-61
2023/05/03 09:56:11;;;;;;;10.02;5.00;;;;;;;14.04;43.82;100367.47;4936686;28;20040;-63
2023/05/03 09:58:39;;;;;;;7.75;4.85;;;;;;;13.85;43.32;100371.38;4946847;28;20109;-62
2023/05/03 10:01:06;;;;;;;10.63;4.93;;;;;;;13.41;43.34;100368.22;4946351;28;20058;-61
2023/05/03 10:03:37;;;;;;;9.18;4.43;;;;;;;14.34;42.12;100364.59;4948462;28;20063;-62
2023/05/03 10:06:06;;;;;;;10.18;4.97;;;;;;;14.01;42.42;100366.06;4946305;28;20043;-62
2023/05/03 10:08:35;;;;;;;8.05;4.40;;;;;;;15.19;40.01;100360.19;4938617;28;20129;-62
2023/05/03 10:11:02;;;;;;;8.07;4.78;;;;;;;14.45;43.23;100352.09;4938742;28;20816;-61
2023/05/03 10:13:29;;;;;;;9.82;5.38;;;;;;;14.78;43.14;100356.81;4947480;28;20053;-61
2023/05/03 10:15:58;;;;;;;10.85;4.90;;;;;;;14.87;42.13;100352.63;4942079;28;20381;-61
2023/05/03 10:18:27;;;;;;;11.73;5.15;;;;;;;14.25;42.00;100349.81;4959205;28;20057;-62
2023/05/03 10:20:56;;;;;;;9.90;5.43;;;;;;;14.91;42.43;100354.88;4952509;28;20043;-61
2023/05/03 10:23:24;;;;;;;11.10;5.00;;;;;;;14.23;41.88;100357.34;4944025;28;20056;-61
2023/05/03 10:26:17;;;;;;;8.93;5.07;;;;;;;15.59;40.72;100342.16;4937704;28;20048;-60
2023/05/03 10:28:44;;;;;;;10.30;5.07;;;;;;;15.01;41.97;100355.84;4920266;28;20077;-61
2023/05/03 10:31:45;;;;;;;9.00;4.93;;;;;;;15.07;42.13;100354.06;4937473;28;20458;-61
2023/05/03 10:34:31;;;;;;;7.15;5.15;;;;;;;15.44;42.08;100346.28;4944131;28;20058;-61
2023/05/03 10:37:01;;;;;;;10.70;5.25;;;;;;;15.42;41.48;100343.00;4942429;28;20051;-62
2023/05/03 10:39:28;;;;;;;;;;;;;;;14.93;41.40;100348.16;4949454;28;20073;-61
2023/05/03 10:42:00;;;;;;;8.40;4.85;;;;;;;14.19;41.86;100346.22;4945284;28;20366;-61
2023/05/03 10:44:28;;;;;;;7.30;4.50;;;;;;;14.10;42.37;100336.03;4949223;28;20417;-61
2023/05/03 10:46:55;;;;;;;9.45;5.07;;;;;;;14.02;42.07;100335.34;4944071;28;20534;-61
2023/05/03 10:49:22;;;;;;;12.48;4.70;;;;;;;14.39;42.56;100326.91;4939848;28;20214;-62
2023/05/03 10:51:49;;;;;;;11.02;4.97;;;;;;;14.97;42.18;100340.38;4948400;28;20036;-63
2023/05/03 10:54:18;;;;;;;7.63;4.50;;;;;;;14.83;41.68;100334.50;4941420;28;20035;-61
2023/05/03 10:56:55;;;;;;;7.97;4.20;;;;;;;14.18;42.21;100327.59;4937931;28;20039;-62
2023/05/03 10:59:24;;;;;;;10.35;4.78;;;;;;;14.30;42.51;100314.88;4943834;28;20886;-61
2023/05/03 11:01:52;;;;;;;5.90;4.00;;;;;;;15.23;41.68;100312.75;4941984;28;20131;-61
2023/05/03 11:04:39;;;;;;;9.05;4.60;;;;;;;13.98;42.17;100318.03;4947440;28;20051;-61
2023/05/03 11:07:08;;;;;;;8.68;4.75;;;;;;;14.38;42.19;100313.69;4931387;28;20692;-61
2023/05/03 11:09:36;;;;;;;8.40;4.28;;;;;;;14.74;41.70;100303.56;4950284;28;20049;-61
2023/05/03 11:12:07;;;;;;;10.77;4.75;;;;;;;14.23;41.88;100298.03;4951285;28;20504;-61
2023/05/03 11:14:35;;;;;;;7.75;4.75;;;;;;;14.14;42.14;100299.47;4945637;28;20039;-61
2023/05/03 11:17:02;;;;;;;10.65;4.78;;;;;;;15.23;41.59;100301.94;4939455;28;20147;-61
2023/05/03 11:19:29;;;;;;;10.02;4.45;;;;;;;14.48;41.83;100291.47;4937048;28;20498;-61
2023/05/03 11:21:57;;;;;;;11.05;4.50;;;;;;;15.94;40.36;100291.31;4944009;28;20079;-63
2023/05/03 11:24:24;;;;;;;8.63;4.47;;;;;;;14.65;40.23;100278.84;4946864;28;20110;-62
2023/05/03 11:26:51;;;;;;;6.70;4.10;;;;;;;15.57;39.82;100280.25;4952256;28;20043;-63